A- A+ FrançaisEnglishEspañol中国

le plus proche LFBT Tarbes-Lourdes-PyrénéesLFOT Tours-St-Symphorien LFQY Saverne-Steinbourg LFPV Villacoublay-Velizy

manche à air

La météo aéronautique pour les pilotes, la préparation du vol avec les METAR (METeorological Aerodrome Report, message d'observation des conditions météorologiques pour l'aviation) et Les TAF (Terminal Aerodrome Forecast : message de prévision à court terme des conditions météorologiques pour l'aviation). Et les autres ressources comme les VAC (Visual Approch Chart) et les NOTAM (Notice To Airman) pour préprer les vols.

Aéroport Blackpool (Royaume-Uni) / OACI EGNH/ IATA BLK

L'altitude de l'aéroport Blackpool est de 10 m=33 ft. Il est situé à proximité de Blackpool (Royaume-Uni). La météo générale à 5 jours est disponible pour Marton situé à 2.3 km.

METAR de l'aéroport Blackpool - EGNH

EGNH 181020Z 31015KT 9999 FEW028 06/03 Q1026

Décodage du METAR de l'aéroport Blackpool (GB)

METAR émis par EGNH le samedi 18 janvier 2020 à 10:20 heure TU. Attention ce METAR est obsolète car il a été émis il y a 17 heure et 55 minutes.

La visibilité est de supérieure à 10 km=supérieure à 6.2 sm.

La température est de 6°C=43 °F et le point rosée est de 3°C=37 °F . Ce qui correspond à 81% d'humidité relative.

Le QNH est de 1026 hPa=30.3 inHg

Vent de 15 kt=28 km/h, orienté à 310°.

Nuages : Quelques nuages à 2800 ft=850 mètres.

TAF de l'aéroport Blackpool - EGNH

EGNH 180802Z 1809/1818 30012KT 9999 SCT025 PROB30 TEMPO 1809/1812 6000 SHRA

EGNH 180802Z 1809/1818 30012KT 9999 nuages épars à 025 probabilité de 30% d'avoir temporairement 1809/1812 6000 SHRA

Aéroport à proximité de Blackpool

Météo générale à 5 jours à Marton (2.3 km)EGNO Aéroport Warton (10 km)EGOW Aéroport Woodvale (21 km)EGNL Aéroport Barrow (43 km)EGGP Aéroport Liverpool (50 km)EGCB Aéroport Manchester Barton (54 km)EGNR Aéroport Hawarden (66 km)

Vue aérienne de l'aéroport Blackpool

NOTAM de l'aéroport Blackpool

Les NOTAM sont fournis sans aucune garantie de leur actualité. Le pilote est le seul responsable de la vérification de sa validité avant de l'utiliser opérationnellement pour préparer un vol ou l'utiliser lors de sa navigation.

NOTAM Obstacle lights on (à partir du dimanche 5 janvier 2020 à 11:46 jusqu'au vendredi 31 janvier 2020 à 21:00)

C0073/20 NOTAMN
Q) EGTT/QOLAS/IV/M /A /000/999/5346N00302W005
A) EGNH B) 2001051146 C) 2001312100
E) RWY 28 GLIDE PATH OBSTRUCTION LIGHT U/S
CREATED: 05 Jan 2020 11:46:00
SOURCE: EUECYIYN

Sources des données